Caliope — WDI8222 — position and weather

sailwx.info

Track history (hours):
 
Tides and Currents Weather Stations Pressure Air Temp Water Temp Dewpoint Dewpoint Depression Visibility Wind Speed Wind Dir Waves Ship Positions

Caliope

Owner: CALIOPE INC., Miami, FL. More information available from US FCC via Universal Licensing System and Coast Guard Vessel Documentation Center.

Last reported at 2017-Nov-19 16:12 UTC. Time now 2017-Nov-23 17:07 UTC.
Position N 27°50' W 015°21'.

Length 17 m.

Type: Sailing vessel. MMSI: 367736440.

Date/timePositionNaut miles runAvg speedWind from/ knotsBaromVisibWave heightAir tempDewpointWater temp
2017-Nov-19 16:12N 27°50' W 015°21'2 5.5
2017-Nov-19 15:54N 27°52' W 015°21'3 7.4
2017-Nov-19 15:30N 27°54' W 015°21'4 5.9
2017-Nov-19 14:54N 27°58' W 015°21'2 5.6
2017-Nov-19 14:30N 28°00' W 015°21'2 4.7
2017-Nov-19 14:00N 28°02' W 015°22'3 5.3
2017-Nov-19 13:30N 28°05' W 015°23'2 3.8
2017-Nov-19 13:00N 28°07' W 015°24'1 1.3
2017-Nov-19 12:30N 28°07' W 015°24'1 1.5
2017-Nov-19 11:55N 28°07' W 015°25'1 2.2
2017-Nov-19 11:25N 28°06' W 015°24'2 2.9
2017-Nov-19 10:52N 28°08' W 015°26'0 0.0
2017-Nov-19 10:22N 28°08' W 015°26'0 0.0
2017-Nov-19 09:52N 28°08' W 015°26'0 0.0
2017-Nov-19 09:22N 28°08' W 015°26'  
2017-Nov-15 16:53N 28°08' W 015°26'2 4.7
2017-Nov-15 16:28N 28°07' W 015°23'1 1.3
2017-Nov-15 15:59N 28°08' W 015°23'2 4.5
2017-Nov-15 15:30N 28°08' W 015°25'1 2.2
2017-Nov-15 15:00N 28°07' W 015°24'1 1.7
2017-Nov-15 14:22N 28°08' W 015°26'0 0.0
2017-Nov-15 10:36N 28°08' W 015°26'0 0.0
2017-Nov-15 10:30N 28°08' W 015°26'0 0.0
2017-Nov-15 10:00N 28°08' W 015°26'0 0.0
2017-Nov-15 09:30N 28°08' W 015°26'0 0.0
2017-Nov-15 09:00N 28°08' W 015°26'0 0.0
2017-Nov-15 08:30N 28°08' W 015°26'0 0.0
2017-Nov-15 08:00N 28°08' W 015°26'0 0.0
2017-Nov-15 07:30N 28°08' W 015°26'0 0.0
2017-Nov-15 06:59N 28°08' W 015°26'0 0.0
2017-Nov-15 06:29N 28°08' W 015°26'0 0.0
2017-Nov-15 05:59N 28°08' W 015°26'0 0.0
2017-Nov-15 05:29N 28°08' W 015°26'0 0.0
2017-Nov-15 04:59N 28°08' W 015°26'0 0.0
2017-Nov-15 04:29N 28°08' W 015°26'0 0.0
2017-Nov-15 03:59N 28°08' W 015°26'0 0.0
2017-Nov-15 03:29N 28°08' W 015°26'0 0.0
2017-Nov-15 02:59N 28°08' W 015°26'0 0.0
2017-Nov-15 02:26N 28°08' W 015°26'0 0.0
2017-Nov-15 01:56N 28°08' W 015°26'0 0.0
2017-Nov-15 01:26N 28°08' W 015°26'0 0.0
2017-Nov-15 00:53N 28°08' W 015°26'0 0.0
2017-Nov-15 00:19N 28°08' W 015°26'0 0.0
2017-Nov-14 23:49N 28°08' W 015°26'0 0.0
2017-Nov-14 23:28N 28°08' W 015°26'0 0.0
2017-Nov-14 22:58N 28°08' W 015°26'0 0.0
2017-Nov-14 22:28N 28°08' W 015°26'0 0.0
2017-Nov-14 21:58N 28°08' W 015°26'0 0.0
2017-Nov-14 21:28N 28°08' W 015°26'0 0.0
2017-Nov-14 20:55N 28°08' W 015°26'0 0.0
2017-Nov-14 20:28N 28°08' W 015°26'0 0.0
2017-Nov-14 19:58N 28°08' W 015°26'0 0.0
2017-Nov-14 19:25N 28°08' W 015°26'0 0.0
2017-Nov-14 18:55N 28°08' W 015°26'0 0.0
2017-Nov-14 18:25N 28°08' W 015°26'0 0.0
2017-Nov-14 17:52N 28°08' W 015°26'0 0.0
2017-Nov-14 17:22N 28°08' W 015°26'0 0.0
2017-Nov-14 17:01N 28°08' W 015°26'0 0.0
2017-Nov-14 16:30N 28°08' W 015°26'0 0.0
2017-Nov-14 16:00N 28°08' W 015°26'0 0.0
2017-Nov-14 15:30N 28°08' W 015°26'0 0.0
2017-Nov-14 15:00N 28°08' W 015°26'0 0.0
2017-Nov-14 14:30N 28°08' W 015°26'0 0.0
2017-Nov-14 14:00N 28°08' W 015°26'0 0.0
2017-Nov-14 13:27N 28°08' W 015°26'0 0.0
2017-Nov-14 12:57N 28°08' W 015°26'0 0.0
2017-Nov-14 12:27N 28°08' W 015°26'0 0.0
2017-Nov-14 11:54N 28°08' W 015°26'0 0.0
2017-Nov-14 11:23N 28°08' W 015°26'0 0.0
2017-Nov-14 10:50N 28°08' W 015°26'0 0.0
2017-Nov-14 10:29N 28°08' W 015°26'0 0.0
2017-Nov-14 09:59N 28°08' W 015°26'0 0.0
2017-Nov-14 09:29N 28°08' W 015°26'0 0.0
2017-Nov-14 08:59N 28°08' W 015°26'0 0.0
2017-Nov-14 08:29N 28°08' W 015°26'0 0.0
2017-Nov-14 07:59N 28°08' W 015°26'0 0.0
2017-Nov-14 07:29N 28°08' W 015°26'0 0.0
2017-Nov-14 06:59N 28°08' W 015°26'0 0.0
2017-Nov-14 06:29N 28°08' W 015°26'0 0.0
2017-Nov-14 05:59N 28°08' W 015°26'0 0.0
2017-Nov-14 05:29N 28°08' W 015°26'0 0.0
2017-Nov-14 04:58N 28°08' W 015°26'0 0.0
2017-Nov-14 04:28N 28°08' W 015°26'0 0.0
2017-Nov-14 03:55N 28°08' W 015°26'0 0.0
2017-Nov-14 03:25N 28°08' W 015°26'0 0.0
2017-Nov-14 02:55N 28°08' W 015°26'0 0.0
2017-Nov-14 02:22N 28°08' W 015°26'0 0.0
2017-Nov-14 01:55N 28°08' W 015°26'0 0.0
2017-Nov-14 01:22N 28°08' W 015°26'0 0.0
2017-Nov-14 00:49N 28°08' W 015°26'0 0.0
2017-Nov-14 00:28N 28°08' W 015°26'0 0.0
2017-Nov-13 23:58N 28°08' W 015°26'0 0.0
2017-Nov-13 23:30N 28°08' W 015°26'0 0.0
2017-Nov-13 23:00N 28°08' W 015°26'0 0.0
2017-Nov-13 22:27N 28°08' W 015°26'0 0.0
2017-Nov-13 21:57N 28°08' W 015°26'0 0.0
2017-Nov-13 01:54N 28°08' W 015°26'0 0.0
2017-Nov-13 01:24N 28°08' W 015°26'0 0.0
2017-Nov-13 00:54N 28°08' W 015°26'0 0.0
2017-Nov-13 00:30N 28°08' W 015°26'0 0.0
2017-Nov-13 00:00N 28°08' W 015°26'0 0.0
2017-Nov-12 23:29N 28°08' W 015°26'0 0.0
2017-Nov-12 22:53N 28°08' W 015°26'0 0.0
2017-Nov-12 22:23N 28°08' W 015°26'0 0.0
2017-Nov-12 21:53N 28°08' W 015°26'0 0.0
2017-Nov-12 21:23N 28°08' W 015°26'0 0.0
2017-Nov-12 20:28N 28°08' W 015°26'0 0.0
2017-Nov-12 19:58N 28°08' W 015°26'0 0.0
2017-Nov-12 19:28N 28°08' W 015°26'0 0.0
2017-Nov-12 18:55N 28°08' W 015°26'0 0.0
2017-Nov-12 18:22N 28°08' W 015°26'0 0.0
2017-Nov-12 17:46N 28°08' W 015°26'0 0.0
2017-Nov-12 17:31N 28°08' W 015°26'0 0.0
2017-Nov-12 16:57N 28°08' W 015°26'0 0.0
2017-Nov-12 16:30N 28°08' W 015°26'0 0.0
2017-Nov-12 16:00N 28°08' W 015°26'0 0.0
2017-Nov-12 15:27N 28°08' W 015°26'0 0.0
2017-Nov-12 15:00N 28°08' W 015°26'0 0.0
2017-Nov-12 14:30N 28°08' W 015°26'0 0.0
2017-Nov-12 13:57N 28°08' W 015°26'0 0.0
2017-Nov-12 13:27N 28°08' W 015°26'0 0.0
2017-Nov-12 13:00N 28°08' W 015°26'0 0.0
2017-Nov-12 12:27N 28°08' W 015°26'0 0.0
2017-Nov-12 11:57N 28°08' W 015°26'0 0.0
2017-Nov-12 11:27N 28°08' W 015°26'0 0.0
2017-Nov-12 10:57N 28°08' W 015°26'0 0.0
2017-Nov-12 10:27N 28°08' W 015°26'0 0.0
2017-Nov-12 09:57N 28°08' W 015°26'0 0.0
2017-Nov-12 09:27N 28°08' W 015°26'0 0.0
2017-Nov-12 08:54N 28°08' W 015°26'0 0.0
2017-Nov-12 08:23N 28°08' W 015°26'0 0.0
2017-Nov-12 07:53N 28°08' W 015°26'0 0.0
2017-Nov-12 07:23N 28°08' W 015°26'0 0.0
2017-Nov-12 06:53N 28°08' W 015°26'0 0.0
2017-Nov-12 06:20N 28°08' W 015°26'0 0.0
2017-Nov-12 05:50N 28°08' W 015°26'0 0.0
2017-Nov-12 05:20N 28°08' W 015°26'0 0.0
2017-Nov-12 04:50N 28°08' W 015°26'0 0.0
2017-Nov-12 04:20N 28°08' W 015°26'0 0.0
2017-Nov-12 03:59N 28°08' W 015°26'0 0.0
2017-Nov-12 03:29N 28°08' W 015°26'0 0.0
2017-Nov-12 02:59N 28°08' W 015°26'0 0.0
2017-Nov-12 02:29N 28°08' W 015°26'0 0.0
2017-Nov-12 01:59N 28°08' W 015°26'0 0.0
2017-Nov-12 01:29N 28°08' W 015°26'0 0.0
2017-Nov-12 00:55N 28°08' W 015°26'0 0.0
2017-Nov-12 00:28N 28°08' W 015°26'0 0.0
2017-Nov-11 23:58N 28°08' W 015°26'0 0.0
2017-Nov-11 23:28N 28°08' W 015°26'0 0.0
2017-Nov-11 22:58N 28°08' W 015°26'0 0.0
2017-Nov-11 22:25N 28°08' W 015°26'0 0.0
2017-Nov-11 21:58N 28°08' W 015°26'0 0.0
2017-Nov-11 21:25N 28°08' W 015°26'0 0.0
2017-Nov-11 20:55N 28°08' W 015°26'0 0.0
2017-Nov-11 20:25N 28°08' W 015°26'0 0.0
2017-Nov-11 19:55N 28°08' W 015°26'0 0.0
2017-Nov-11 19:22N 28°08' W 015°26'0 0.0
2017-Nov-11 19:00N 28°08' W 015°26'0 0.0
2017-Nov-11 18:27N 28°08' W 015°26'0 0.0
2017-Nov-11 18:00N 28°08' W 015°26'0 0.0
2017-Nov-11 17:30N 28°08' W 015°26'0 0.0
2017-Nov-11 16:57N 28°08' W 015°26'0 0.0
2017-Nov-11 16:24N 28°08' W 015°26'0 0.0
2017-Nov-11 15:57N 28°08' W 015°26'0 0.0
2017-Nov-11 15:24N 28°08' W 015°26'0 0.0
2017-Nov-10 17:39N 28°08' W 015°26'0 0.0
2017-Nov-10 17:24N 28°08' W 015°26'  
Track history (hours):
 
Tides and Currents Weather Stations Pressure Air Temp Water Temp Dewpoint Dewpoint Depression Visibility Wind Speed Wind Dir Waves Ship Positions

Caliope

Owner: CALIOPE INC., Miami, FL. More information available from US FCC via Universal Licensing System and Coast Guard Vessel Documentation Center.

Last reported at 2017-Nov-19 16:12 UTC. Time now 2017-Nov-23 17:07 UTC.
Position N 27°50' W 015°21'.

Length 17 m.

Type: Sailing vessel. MMSI: 367736440.

Date/timePositionNaut miles runAvg speedWind from/ knotsBaromVisibWave heightAir tempDewpointWater temp
2017-Nov-19 16:12N 27°50' W 015°21'2 5.5
2017-Nov-19 15:54N 27°52' W 015°21'3 7.4
2017-Nov-19 15:30N 27°54' W 015°21'4 5.9
2017-Nov-19 14:54N 27°58' W 015°21'2 5.6
2017-Nov-19 14:30N 28°00' W 015°21'2 4.7
2017-Nov-19 14:00N 28°02' W 015°22'3 5.3
2017-Nov-19 13:30N 28°05' W 015°23'2 3.8
2017-Nov-19 13:00N 28°07' W 015°24'1 1.3
2017-Nov-19 12:30N 28°07' W 015°24'1 1.5
2017-Nov-19 11:55N 28°07' W 015°25'1 2.2
2017-Nov-19 11:25N 28°06' W 015°24'2 2.9
2017-Nov-19 10:52N 28°08' W 015°26'0 0.0
2017-Nov-19 10:22N 28°08' W 015°26'0 0.0
2017-Nov-19 09:52N 28°08' W 015°26'0 0.0
2017-Nov-19 09:22N 28°08' W 015°26'  
2017-Nov-15 16:53N 28°08' W 015°26'2 4.7
2017-Nov-15 16:28N 28°07' W 015°23'1 1.3
2017-Nov-15 15:59N 28°08' W 015°23'2 4.5
2017-Nov-15 15:30N 28°08' W 015°25'1 2.2
2017-Nov-15 15:00N 28°07' W 015°24'1 1.7
2017-Nov-15 14:22N 28°08' W 015°26'0 0.0
2017-Nov-15 10:36N 28°08' W 015°26'0 0.0
2017-Nov-15 10:30N 28°08' W 015°26'0 0.0
2017-Nov-15 10:00N 28°08' W 015°26'0 0.0
2017-Nov-15 09:30N 28°08' W 015°26'0 0.0
2017-Nov-15 09:00N 28°08' W 015°26'0 0.0
2017-Nov-15 08:30N 28°08' W 015°26'0 0.0
2017-Nov-15 08:00N 28°08' W 015°26'0 0.0
2017-Nov-15 07:30N 28°08' W 015°26'0 0.0
2017-Nov-15 06:59N 28°08' W 015°26'0 0.0
2017-Nov-15 06:29N 28°08' W 015°26'0 0.0
2017-Nov-15 05:59N 28°08' W 015°26'0 0.0
2017-Nov-15 05:29N 28°08' W 015°26'0 0.0
2017-Nov-15 04:59N 28°08' W 015°26'0 0.0
2017-Nov-15 04:29N 28°08' W 015°26'0 0.0
2017-Nov-15 03:59N 28°08' W 015°26'0 0.0
2017-Nov-15 03:29N 28°08' W 015°26'0 0.0
2017-Nov-15 02:59N 28°08' W 015°26'0 0.0
2017-Nov-15 02:26N 28°08' W 015°26'0 0.0
2017-Nov-15 01:56N 28°08' W 015°26'0 0.0
2017-Nov-15 01:26N 28°08' W 015°26'0 0.0
2017-Nov-15 00:53N 28°08' W 015°26'0 0.0
2017-Nov-15 00:19N 28°08' W 015°26'0 0.0
2017-Nov-14 23:49N 28°08' W 015°26'0 0.0
2017-Nov-14 23:28N 28°08' W 015°26'0 0.0
2017-Nov-14 22:58N 28°08' W 015°26'0 0.0
2017-Nov-14 22:28N 28°08' W 015°26'0 0.0
2017-Nov-14 21:58N 28°08' W 015°26'0 0.0
2017-Nov-14 21:28N 28°08' W 015°26'0 0.0
2017-Nov-14 20:55N 28°08' W 015°26'0 0.0
2017-Nov-14 20:28N 28°08' W 015°26'0 0.0
2017-Nov-14 19:58N 28°08' W 015°26'0 0.0
2017-Nov-14 19:25N 28°08' W 015°26'0 0.0
2017-Nov-14 18:55N 28°08' W 015°26'0 0.0
2017-Nov-14 18:25N 28°08' W 015°26'0 0.0
2017-Nov-14 17:52N 28°08' W 015°26'0 0.0
2017-Nov-14 17:22N 28°08' W 015°26'0 0.0
2017-Nov-14 17:01N 28°08' W 015°26'0 0.0
2017-Nov-14 16:30N 28°08' W 015°26'0 0.0
2017-Nov-14 16:00N 28°08' W 015°26'0 0.0
2017-Nov-14 15:30N 28°08' W 015°26'0 0.0
2017-Nov-14 15:00N 28°08' W 015°26'0 0.0
2017-Nov-14 14:30N 28°08' W 015°26'0 0.0
2017-Nov-14 14:00N 28°08' W 015°26'0 0.0
2017-Nov-14 13:27N 28°08' W 015°26'0 0.0
2017-Nov-14 12:57N 28°08' W 015°26'0 0.0
2017-Nov-14 12:27N 28°08' W 015°26'0 0.0
2017-Nov-14 11:54N 28°08' W 015°26'0 0.0
2017-Nov-14 11:23N 28°08' W 015°26'0 0.0
2017-Nov-14 10:50N 28°08' W 015°26'0 0.0
2017-Nov-14 10:29N 28°08' W 015°26'0 0.0
2017-Nov-14 09:59N 28°08' W 015°26'0 0.0
2017-Nov-14 09:29N 28°08' W 015°26'0 0.0
2017-Nov-14 08:59N 28°08' W 015°26'0 0.0
2017-Nov-14 08:29N 28°08' W 015°26'0 0.0
2017-Nov-14 07:59N 28°08' W 015°26'0 0.0
2017-Nov-14 07:29N 28°08' W 015°26'0 0.0
2017-Nov-14 06:59N 28°08' W 015°26'0 0.0
2017-Nov-14 06:29N 28°08' W 015°26'0 0.0
2017-Nov-14 05:59N 28°08' W 015°26'0 0.0
2017-Nov-14 05:29N 28°08' W 015°26'0 0.0
2017-Nov-14 04:58N 28°08' W 015°26'0 0.0
2017-Nov-14 04:28N 28°08' W 015°26'0 0.0
2017-Nov-14 03:55N 28°08' W 015°26'0 0.0
2017-Nov-14 03:25N 28°08' W 015°26'0 0.0
2017-Nov-14 02:55N 28°08' W 015°26'0 0.0
2017-Nov-14 02:22N 28°08' W 015°26'0 0.0
2017-Nov-14 01:55N 28°08' W 015°26'0 0.0
2017-Nov-14 01:22N 28°08' W 015°26'0 0.0
2017-Nov-14 00:49N 28°08' W 015°26'0 0.0
2017-Nov-14 00:28N 28°08' W 015°26'0 0.0
2017-Nov-13 23:58N 28°08' W 015°26'0 0.0
2017-Nov-13 23:30N 28°08' W 015°26'0 0.0
2017-Nov-13 23:00N 28°08' W 015°26'0 0.0
2017-Nov-13 22:27N 28°08' W 015°26'0 0.0
2017-Nov-13 21:57N 28°08' W 015°26'0 0.0
2017-Nov-13 01:54N 28°08' W 015°26'0 0.0
2017-Nov-13 01:24N 28°08' W 015°26'0 0.0
2017-Nov-13 00:54N 28°08' W 015°26'0 0.0
2017-Nov-13 00:30N 28°08' W 015°26'0 0.0
2017-Nov-13 00:00N 28°08' W 015°26'0 0.0
2017-Nov-12 23:29N 28°08' W 015°26'0 0.0
2017-Nov-12 22:53N 28°08' W 015°26'0 0.0
2017-Nov-12 22:23N 28°08' W 015°26'0 0.0
2017-Nov-12 21:53N 28°08' W 015°26'0 0.0
2017-Nov-12 21:23N 28°08' W 015°26'0 0.0
2017-Nov-12 20:28N 28°08' W 015°26'0 0.0
2017-Nov-12 19:58N 28°08' W 015°26'0 0.0
2017-Nov-12 19:28N 28°08' W 015°26'0 0.0
2017-Nov-12 18:55N 28°08' W 015°26'0 0.0
2017-Nov-12 18:22N 28°08' W 015°26'0 0.0
2017-Nov-12 17:46N 28°08' W 015°26'0 0.0
2017-Nov-12 17:31N 28°08' W 015°26'0 0.0
2017-Nov-12 16:57N 28°08' W 015°26'0 0.0
2017-Nov-12 16:30N 28°08' W 015°26'0 0.0
2017-Nov-12 16:00N 28°08' W 015°26'0 0.0
2017-Nov-12 15:27N 28°08' W 015°26'0 0.0
2017-Nov-12 15:00N 28°08' W 015°26'0 0.0
2017-Nov-12 14:30N 28°08' W 015°26'0 0.0
2017-Nov-12 13:57N 28°08' W 015°26'0 0.0
2017-Nov-12 13:27N 28°08' W 015°26'0 0.0
2017-Nov-12 13:00N 28°08' W 015°26'0 0.0
2017-Nov-12 12:27N 28°08' W 015°26'0 0.0
2017-Nov-12 11:57N 28°08' W 015°26'0 0.0
2017-Nov-12 11:27N 28°08' W 015°26'0 0.0
2017-Nov-12 10:57N 28°08' W 015°26'0 0.0
2017-Nov-12 10:27N 28°08' W 015°26'0 0.0
2017-Nov-12 09:57N 28°08' W 015°26'0 0.0
2017-Nov-12 09:27N 28°08' W 015°26'0 0.0
2017-Nov-12 08:54N 28°08' W 015°26'0 0.0
2017-Nov-12 08:23N 28°08' W 015°26'0 0.0
2017-Nov-12 07:53N 28°08' W 015°26'0 0.0
2017-Nov-12 07:23N 28°08' W 015°26'0 0.0
2017-Nov-12 06:53N 28°08' W 015°26'0 0.0
2017-Nov-12 06:20N 28°08' W 015°26'0 0.0
2017-Nov-12 05:50N 28°08' W 015°26'0 0.0
2017-Nov-12 05:20N 28°08' W 015°26'0 0.0
2017-Nov-12 04:50N 28°08' W 015°26'0 0.0
2017-Nov-12 04:20N 28°08' W 015°26'0 0.0
2017-Nov-12 03:59N 28°08' W 015°26'0 0.0
2017-Nov-12 03:29N 28°08' W 015°26'0 0.0
2017-Nov-12 02:59N 28°08' W 015°26'0 0.0
2017-Nov-12 02:29N 28°08' W 015°26'0 0.0
2017-Nov-12 01:59N 28°08' W 015°26'0 0.0
2017-Nov-12 01:29N 28°08' W 015°26'0 0.0
2017-Nov-12 00:55N 28°08' W 015°26'0 0.0
2017-Nov-12 00:28N 28°08' W 015°26'0 0.0
2017-Nov-11 23:58N 28°08' W 015°26'0 0.0
2017-Nov-11 23:28N 28°08' W 015°26'0 0.0
2017-Nov-11 22:58N 28°08' W 015°26'0 0.0
2017-Nov-11 22:25N 28°08' W 015°26'0 0.0
2017-Nov-11 21:58N 28°08' W 015°26'0 0.0
2017-Nov-11 21:25N 28°08' W 015°26'0 0.0
2017-Nov-11 20:55N 28°08' W 015°26'0 0.0
2017-Nov-11 20:25N 28°08' W 015°26'0 0.0
2017-Nov-11 19:55N 28°08' W 015°26'0 0.0
2017-Nov-11 19:22N 28°08' W 015°26'0 0.0
2017-Nov-11 19:00N 28°08' W 015°26'0 0.0
2017-Nov-11 18:27N 28°08' W 015°26'0 0.0
2017-Nov-11 18:00N 28°08' W 015°26'0 0.0
2017-Nov-11 17:30N 28°08' W 015°26'0 0.0
2017-Nov-11 16:57N 28°08' W 015°26'0 0.0
2017-Nov-11 16:24N 28°08' W 015°26'0 0.0
2017-Nov-11 15:57N 28°08' W 015°26'0 0.0
2017-Nov-11 15:24N 28°08' W 015°26'0 0.0
2017-Nov-10 17:39N 28°08' W 015°26'0 0.0
2017-Nov-10 17:24N 28°08' W 015°26'  

Dump ship's entire track history